Time,TemperatureF,DewpointF,PressureIn,WindDirection,WindDirectionDegrees,WindSpeedMPH,WindSpeedGustMPH,Humidity,HourlyPrecipIn,Conditions,Clouds,dailyrainin,SoftwareType,DateUTC
2013-02-05 00:01:00,41.8,18.0,30.02,North,360,4.0,5.0,39,0.00,,,0.00,weatherlink.com 1.10,2013-02-05 07:01:00,
2013-02-05 00:16:00,40.9,19.0,30.03,NNE,29,2.0,4.0,41,0.00,,,0.00,weatherlink.com 1.10,2013-02-05 07:16:00,
2013-02-05 00:31:00,40.2,19.0,30.04,North,11,0.0,1.0,43,0.00,,,0.00,weatherlink.com 1.10,2013-02-05 07:31:00,
2013-02-05 00:46:00,39.6,19.0,30.04,North,4,1.0,4.0,44,0.00,,,0.00,weatherlink.com 1.10,2013-02-05 07:46:00,
2013-02-05 01:01:00,40.1,20.0,30.04,NE,40,3.0,4.0,44,0.00,,,0.00,weatherlink.com 1.10,2013-02-05 08:01:00,
2013-02-05 01:16:00,40.3,20.0,30.04,North,8,1.0,3.0,45,0.00,,,0.00,weatherlink.com 1.10,2013-02-05 08:16:00,
2013-02-05 01:31:00,39.9,21.0,30.04,North,11,0.0,0.0,47,0.00,,,0.00,weatherlink.com 1.10,2013-02-05 08:31:00,
2013-02-05 01:46:00,39.0,21.0,30.04,North,10,0.0,1.0,49,0.00,,,0.00,weatherlink.com 1.10,2013-02-05 08:46:00,
2013-02-05 02:01:00,40.1,21.0,30.04,North,11,0.0,1.0,47,0.00,,,0.00,weatherlink.com 1.10,2013-02-05 09:01:00,
2013-02-05 02:16:00,38.6,21.0,30.04,North,359,1.0,4.0,49,0.00,,,0.00,weatherlink.com 1.10,2013-02-05 09:16:00,
2013-02-05 02:31:00,37.1,21.0,30.04,North,5,0.0,0.0,52,0.00,,,0.00,weatherlink.com 1.10,2013-02-05 09:31:00,
2013-02-05 02:46:00,36.0,21.0,30.03,North,355,0.0,1.0,54,0.00,,,0.00,weatherlink.com 1.10,2013-02-05 09:46:00,
2013-02-05 03:01:00,36.0,20.0,30.03,North,352,0.0,3.0,53,0.00,,,0.00,weatherlink.com 1.10,2013-02-05 10:01:00,
2013-02-05 03:16:00,35.9,22.0,30.03,North,352,0.0,1.0,58,0.00,,,0.00,weatherlink.com 1.10,2013-02-05 10:16:00,
2013-02-05 03:31:00,35.3,20.0,30.03,North,351,0.0,0.0,54,0.00,,,0.00,weatherlink.com 1.10,2013-02-05 10:31:00,
2013-02-05 03:46:00,36.4,21.0,30.03,North,353,0.0,1.0,55,0.00,,,0.00,weatherlink.com 1.10,2013-02-05 10:46:00,
2013-02-05 04:01:00,37.2,20.0,30.03,North,352,0.0,1.0,50,0.00,,,0.00,weatherlink.com 1.10,2013-02-05 11:01:00,
2013-02-05 04:16:00,35.5,21.0,30.04,ENE,65,0.0,1.0,55,0.00,,,0.00,weatherlink.com 1.10,2013-02-05 11:16:00,
2013-02-05 04:31:00,35.6,24.0,30.04,ENE,65,0.0,0.0,62,0.00,,,0.00,weatherlink.com 1.10,2013-02-05 11:31:00,
2013-02-05 04:46:00,37.0,22.0,30.05,ENE,65,0.0,0.0,55,0.00,,,0.00,weatherlink.com 1.10,2013-02-05 11:46:00,
2013-02-05 05:01:00,34.6,21.0,30.05,ENE,65,0.0,0.0,58,0.00,,,0.00,weatherlink.com 1.10,2013-02-05 12:01:00,
2013-02-05 05:17:00,34.1,21.0,30.05,ENE,65,0.0,0.0,60,0.00,,,0.00,weatherlink.com 1.10,2013-02-05 12:17:00,
2013-02-05 05:31:00,34.5,21.0,30.05,ENE,65,0.0,0.0,57,0.00,,,0.00,weatherlink.com 1.10,2013-02-05 12:31:00,
2013-02-05 05:46:00,32.5,19.0,30.06,ENE,65,0.0,0.0,59,0.00,,,0.00,weatherlink.com 1.10,2013-02-05 12:46:00,
2013-02-05 06:01:00,31.9,20.0,30.07,ENE,65,0.0,0.0,61,0.00,,,0.00,weatherlink.com 1.10,2013-02-05 13:01:00,
2013-02-05 06:16:00,33.7,22.0,30.07,East,100,0.0,1.0,63,0.00,,,0.00,weatherlink.com 1.10,2013-02-05 13:16:00,
2013-02-05 06:31:00,34.9,21.0,30.07,East,100,0.0,1.0,58,0.00,,,0.00,weatherlink.com 1.10,2013-02-05 13:31:00,
2013-02-05 06:46:00,34.3,22.0,30.07,East,100,0.0,1.0,62,0.00,,,0.00,weatherlink.com 1.10,2013-02-05 13:46:00,
2013-02-05 07:02:00,33.2,20.0,30.08,East,100,0.0,1.0,59,0.00,,,0.00,weatherlink.com 1.10,2013-02-05 14:02:00,
2013-02-05 07:17:00,31.2,19.0,30.09,East,100,0.0,1.0,61,0.00,,,0.00,weatherlink.com 1.10,2013-02-05 14:17:00,
2013-02-05 07:32:00,31.4,20.0,30.09,East,101,0.0,0.0,64,0.00,,,0.00,weatherlink.com 1.10,2013-02-05 14:32:00,
2013-02-05 07:47:00,35.7,22.0,30.09,East,100,0.0,0.0,58,0.00,,,0.00,weatherlink.com 1.10,2013-02-05 14:47:00,
2013-02-05 08:02:00,37.7,22.0,30.10,North,353,2.0,3.0,54,0.00,,,0.00,weatherlink.com 1.10,2013-02-05 15:02:00,
2013-02-05 08:17:00,39.2,23.0,30.10,North,349,0.0,2.0,52,0.00,,,0.00,weatherlink.com 1.10,2013-02-05 15:17:00,
2013-02-05 08:32:00,40.3,23.0,30.10,NNE,13,2.0,3.0,50,0.00,,,0.00,weatherlink.com 1.10,2013-02-05 15:32:00,
2013-02-05 08:47:00,41.0,23.0,30.09,NW,316,2.0,6.0,49,0.00,,,0.00,weatherlink.com 1.10,2013-02-05 15:47:00,
2013-02-05 09:02:00,41.4,23.0,30.10,NNE,14,6.0,6.0,48,0.00,,,0.00,weatherlink.com 1.10,2013-02-05 16:02:00,
2013-02-05 09:17:00,41.3,23.0,30.10,NNE,22,1.0,6.0,48,0.00,,,0.00,weatherlink.com 1.10,2013-02-05 16:17:00,
2013-02-05 09:32:00,42.6,22.0,30.09,NNE,29,1.0,4.0,45,0.00,,,0.00,weatherlink.com 1.10,2013-02-05 16:32:00,
2013-02-05 09:47:00,43.1,23.0,30.10,NNW,338,3.0,5.0,45,0.00,,,0.00,weatherlink.com 1.10,2013-02-05 16:47:00,
2013-02-05 10:02:00,44.1,23.0,30.09,ESE,120,1.0,3.0,43,0.00,,,0.00,weatherlink.com 1.10,2013-02-05 17:02:00,
2013-02-05 10:17:00,45.2,23.0,30.09,NW,307,1.0,5.0,41,0.00,,,0.00,weatherlink.com 1.10,2013-02-05 17:17:00,
2013-02-05 10:32:00,47.0,22.0,30.09,NE,40,0.0,4.0,38,0.00,,,0.00,weatherlink.com 1.10,2013-02-05 17:32:00,
2013-02-05 11:02:00,48.9,22.0,30.09,North,5,6.0,6.0,35,0.00,,,0.00,weatherlink.com 1.10,2013-02-05 18:02:00,
2013-02-05 11:17:00,50.6,23.0,30.08,NW,308,0.0,3.0,34,0.00,,,0.00,weatherlink.com 1.10,2013-02-05 18:17:00,
2013-02-05 11:32:00,50.7,22.0,30.07,NNE,32,2.0,4.0,33,0.00,,,0.00,weatherlink.com 1.10,2013-02-05 18:32:00,
2013-02-05 11:47:00,52.2,21.0,30.06,North,4,1.0,5.0,30,0.00,,,0.00,weatherlink.com 1.10,2013-02-05 18:47:00,
2013-02-05 12:03:00,53.4,22.0,30.05,NNW,333,4.0,5.0,29,0.00,,,0.00,weatherlink.com 1.10,2013-02-05 19:03:00,
2013-02-05 12:17:00,54.6,21.0,30.03,WNW,285,1.0,4.0,27,0.00,,,0.00,weatherlink.com 1.10,2013-02-05 19:17:00,
2013-02-05 12:33:00,55.5,20.0,30.02,NE,38,2.0,5.0,25,0.00,,,0.00,weatherlink.com 1.10,2013-02-05 19:33:00,
2013-02-05 12:48:00,55.7,20.0,30.01,SE,132,1.0,5.0,25,0.00,,,0.00,weatherlink.com 1.10,2013-02-05 19:48:00,
2013-02-05 13:03:00,56.8,20.0,30.00,SE,130,0.0,4.0,24,0.00,,,0.00,weatherlink.com 1.10,2013-02-05 20:03:00,
2013-02-05 13:18:00,57.6,20.0,30.00,WNW,295,3.0,6.0,23,0.00,,,0.00,weatherlink.com 1.10,2013-02-05 20:18:00,
2013-02-05 13:33:00,58.2,18.0,29.99,NNE,20,1.0,4.0,21,0.00,,,0.00,weatherlink.com 1.10,2013-02-05 20:33:00,
2013-02-05 13:49:00,58.2,17.0,29.98,North,9,7.0,9.0,20,0.00,,,0.00,weatherlink.com 1.10,2013-02-05 20:49:00,
2013-02-05 14:03:00,59.3,16.0,29.97,WNW,290,1.0,3.0,18,0.00,,,0.00,weatherlink.com 1.10,2013-02-05 21:03:00,
2013-02-05 14:18:00,59.5,16.0,29.97,North,8,3.0,4.0,18,0.00,,,0.00,weatherlink.com 1.10,2013-02-05 21:18:00,
2013-02-05 14:33:00,59.8,15.0,29.96,NE,39,0.0,6.0,17,0.00,,,0.00,weatherlink.com 1.10,2013-02-05 21:33:00,
2013-02-05 14:48:00,60.6,15.0,29.96,WNW,282,1.0,4.0,17,0.00,,,0.00,weatherlink.com 1.10,2013-02-05 21:48:00,
2013-02-05 15:03:00,61.7,15.0,29.96,WSW,253,2.0,3.0,16,0.00,,,0.00,weatherlink.com 1.10,2013-02-05 22:03:00,
2013-02-05 15:18:00,61.6,16.0,29.95,NNE,18,0.0,3.0,17,0.00,,,0.00,weatherlink.com 1.10,2013-02-05 22:18:00,
2013-02-05 15:33:00,62.0,16.0,29.95,SSW,194,0.0,3.0,17,0.00,,,0.00,weatherlink.com 1.10,2013-02-05 22:33:00,
2013-02-05 15:48:00,61.8,15.0,29.95,NNW,332,1.0,4.0,16,0.00,,,0.00,weatherlink.com 1.10,2013-02-05 22:48:00,
2013-02-05 16:03:00,60.9,16.0,29.95,ESE,111,0.0,3.0,17,0.00,,,0.00,weatherlink.com 1.10,2013-02-05 23:03:00,
2013-02-05 16:18:00,61.0,16.0,29.94,North,356,1.0,4.0,17,0.00,,,0.00,weatherlink.com 1.10,2013-02-05 23:18:00,
2013-02-05 16:33:00,61.3,16.0,29.94,NNE,30,0.0,2.0,17,0.00,,,0.00,weatherlink.com 1.10,2013-02-05 23:33:00,
2013-02-05 16:48:00,60.2,15.0,29.94,SW,232,0.0,2.0,17,0.00,,,0.00,weatherlink.com 1.10,2013-02-05 23:48:00,
2013-02-05 17:03:00,59.2,15.0,29.94,NNW,333,0.0,2.0,18,0.00,,,0.00,weatherlink.com 1.10,2013-02-06 00:03:00,
2013-02-05 17:18:00,58.8,16.0,29.94,NE,42,0.0,1.0,19,0.00,,,0.00,weatherlink.com 1.10,2013-02-06 00:18:00,
2013-02-05 17:33:00,57.7,18.0,29.94,NE,42,0.0,1.0,21,0.00,,,0.00,weatherlink.com 1.10,2013-02-06 00:33:00,
2013-02-05 17:48:00,56.9,24.0,29.94,NE,42,0.0,0.0,28,0.00,,,0.00,weatherlink.com 1.10,2013-02-06 00:48:00,
2013-02-05 18:03:00,55.3,20.0,29.94,NE,43,0.0,0.0,25,0.00,,,0.00,weatherlink.com 1.10,2013-02-06 01:03:00,
2013-02-05 18:18:00,54.3,22.0,29.95,NE,43,0.0,0.0,29,0.00,,,0.00,weatherlink.com 1.10,2013-02-06 01:18:00,
2013-02-05 18:33:00,54.3,17.0,29.95,NE,43,0.0,0.0,23,0.00,,,0.00,weatherlink.com 1.10,2013-02-06 01:33:00,
2013-02-05 18:48:00,52.8,18.0,29.95,NE,43,0.0,1.0,25,0.00,,,0.00,weatherlink.com 1.10,2013-02-06 01:48:00,
2013-02-05 19:03:00,52.6,22.0,29.95,NE,43,0.0,1.0,30,0.00,,,0.00,weatherlink.com 1.10,2013-02-06 02:03:00,
2013-02-05 19:18:00,52.1,17.0,29.95,SSE,149,0.0,2.0,25,0.00,,,0.00,weatherlink.com 1.10,2013-02-06 02:18:00,
2013-02-05 19:33:00,49.8,17.0,29.95,SSE,149,0.0,0.0,27,0.00,,,0.00,weatherlink.com 1.10,2013-02-06 02:33:00,
2013-02-05 19:48:00,49.4,18.0,29.95,ESE,119,0.0,2.0,29,0.00,,,0.00,weatherlink.com 1.10,2013-02-06 02:48:00,
2013-02-05 20:04:00,49.3,20.0,29.95,ESE,119,0.0,1.0,31,0.00,,,0.00,weatherlink.com 1.10,2013-02-06 03:04:00,
2013-02-05 20:19:00,47.2,16.0,29.95,ESE,118,0.0,1.0,29,0.00,,,0.00,weatherlink.com 1.10,2013-02-06 03:19:00,
2013-02-05 20:33:00,46.9,18.0,29.95,ESE,118,0.0,0.0,31,0.00,,,0.00,weatherlink.com 1.10,2013-02-06 03:33:00,
2013-02-05 20:48:00,47.3,21.0,29.96,ESE,119,0.0,0.0,36,0.00,,,0.00,weatherlink.com 1.10,2013-02-06 03:48:00,
2013-02-05 21:03:00,48.3,20.0,29.96,ESE,118,0.0,0.0,32,0.00,,,0.00,weatherlink.com 1.10,2013-02-06 04:03:00,
2013-02-05 21:18:00,46.4,17.0,29.96,ESE,118,0.0,0.0,31,0.00,,,0.00,weatherlink.com 1.10,2013-02-06 04:18:00,
2013-02-05 21:33:00,45.2,17.0,29.96,WSW,252,0.0,1.0,32,0.00,,,0.00,weatherlink.com 1.10,2013-02-06 04:33:00,
2013-02-05 21:48:00,42.0,17.0,29.96,WSW,252,0.0,0.0,36,0.00,,,0.00,weatherlink.com 1.10,2013-02-06 04:48:00,
2013-02-05 22:03:00,40.3,19.0,29.96,WSW,252,0.0,0.0,42,0.00,,,0.00,weatherlink.com 1.10,2013-02-06 05:03:00,
2013-02-05 22:19:00,42.6,18.0,29.96,WSW,252,0.0,0.0,37,0.00,,,0.00,weatherlink.com 1.10,2013-02-06 05:19:00,
2013-02-05 22:33:00,41.7,18.0,29.96,WSW,252,0.0,0.0,38,0.00,,,0.00,weatherlink.com 1.10,2013-02-06 05:33:00,
2013-02-05 22:48:00,43.0,22.0,29.96,WSW,252,0.0,0.0,44,0.00,,,0.00,weatherlink.com 1.10,2013-02-06 05:48:00,
2013-02-05 23:03:00,42.0,17.0,29.96,WSW,252,0.0,0.0,37,0.00,,,0.00,weatherlink.com 1.10,2013-02-06 06:03:00,
2013-02-05 23:18:00,38.7,17.0,29.97,WSW,252,0.0,0.0,41,0.00,,,0.00,weatherlink.com 1.10,2013-02-06 06:18:00,
2013-02-05 23:34:00,38.3,17.0,29.97,WSW,252,0.0,0.0,43,0.00,,,0.00,weatherlink.com 1.10,2013-02-06 06:34:00,
2013-02-05 23:49:00,37.8,20.0,29.97,WSW,252,0.0,0.0,48,0.00,,,0.00,weatherlink.com 1.10,2013-02-06 06:49:00,